createdAt,value
2022-09-15T00:01:20.208Z,98775.25
2022-09-15T00:03:48.850Z,98776.91
2022-09-15T00:06:17.701Z,98769.94
2022-09-15T00:08:45.623Z,98772.34
2022-09-15T00:11:22.594Z,98769.34
2022-09-15T00:13:51.509Z,98778.50
2022-09-15T00:16:23.237Z,98775.59
2022-09-15T00:18:51.832Z,98775.13
2022-09-15T00:21:22.994Z,98783.59
2022-09-15T00:23:50.937Z,98770.19
2022-09-15T00:26:23.029Z,98778.69
2022-09-15T00:28:52.138Z,98774.91
2022-09-15T00:31:23.194Z,98778.84
2022-09-15T00:33:53.857Z,98773.25
2022-09-15T00:36:22.811Z,98778.84
2022-09-15T00:38:51.617Z,98776.50
2022-09-15T00:41:22.146Z,98776.94
2022-09-15T00:43:55.474Z,98778.62
2022-09-15T00:46:28.619Z,98776.94
2022-09-15T00:49:02.175Z,98770.88
2022-09-15T00:51:36.176Z,98777.09
2022-09-15T00:54:08.486Z,98781.31
2022-09-15T00:56:39.169Z,98774.25
2022-09-15T00:59:11.502Z,98776.19
2022-09-15T01:01:42.051Z,98770.41
2022-09-15T01:04:10.369Z,98770.72
2022-09-15T01:06:43.890Z,98770.41
2022-09-15T01:09:41.929Z,98772.69
2022-09-15T01:12:09.689Z,98766.87
2022-09-15T01:14:37.897Z,98770.06
2022-09-15T01:17:18.529Z,98762.16
2022-09-15T01:19:56.527Z,98771.88
2022-09-15T01:22:36.692Z,98775.44
2022-09-15T01:25:45.598Z,98772.00
2022-09-15T01:28:49.555Z,98773.00
2022-09-15T01:32:11.511Z,98775.44
2022-09-15T01:34:46.851Z,98769.38
2022-09-15T01:37:21.446Z,98762.47
2022-09-15T01:39:53.249Z,98746.38
2022-09-15T01:42:24.976Z,98764.44
2022-09-15T01:44:58.601Z,98760.28
2022-09-15T01:47:29.936Z,98763.59
2022-09-15T01:50:10.327Z,98758.50
2022-09-15T01:52:43.347Z,98755.62
2022-09-15T01:55:22.721Z,98756.16
2022-09-15T01:57:50.844Z,98763.09
2022-09-15T02:00:18.771Z,98760.13
2022-09-15T02:03:02.068Z,98750.22
2022-09-15T02:05:36.457Z,98756.97
2022-09-15T02:08:25.450Z,98761.41
2022-09-15T02:11:20.171Z,98760.59
2022-09-15T02:14:10.884Z,98765.72
2022-09-15T02:16:42.093Z,98766.13
2022-09-15T02:19:19.990Z,98756.75
2022-09-15T02:22:12.715Z,98762.31
2022-09-15T02:24:46.245Z,98760.25
2022-09-15T02:27:23.394Z,98763.41
2022-09-15T02:29:56.077Z,98765.66
2022-09-15T02:32:26.430Z,98770.09
2022-09-15T02:34:56.730Z,98757.09
2022-09-15T02:37:25.345Z,98761.91
2022-09-15T02:39:59.384Z,98756.50
2022-09-15T02:42:30.345Z,98768.50
2022-09-15T02:44:59.753Z,98763.25
2022-09-15T02:47:28.844Z,98771.12
2022-09-15T02:49:57.434Z,98766.87
2022-09-15T02:52:28.299Z,98767.59
2022-09-15T02:54:56.344Z,98762.16
2022-09-15T02:57:24.337Z,98768.94
2022-09-15T03:00:10.308Z,98763.69
2022-09-15T03:02:38.954Z,98767.13
2022-09-15T03:05:07.899Z,98766.13
2022-09-15T03:07:37.844Z,98768.75
2022-09-15T03:10:07.553Z,98769.62
2022-09-15T03:12:47.060Z,98769.75
2022-09-15T03:15:17.879Z,98764.50
2022-09-15T03:17:47.670Z,98770.56
2022-09-15T03:20:20.388Z,98770.88
2022-09-15T03:22:49.863Z,98772.66
2022-09-15T03:25:18.581Z,98771.84
2022-09-15T03:27:46.856Z,98759.00
2022-09-15T03:30:17.082Z,98766.59
2022-09-15T03:32:45.145Z,98769.91
2022-09-15T03:35:12.904Z,98770.88
2022-09-15T03:37:40.738Z,98768.41
2022-09-15T03:40:10.974Z,98757.25
2022-09-15T03:42:38.826Z,98771.44
2022-09-15T03:45:07.031Z,98771.28
2022-09-15T03:47:35.085Z,98769.66
2022-09-15T03:50:02.858Z,98766.03
2022-09-15T03:52:32.232Z,98772.94
2022-09-15T03:55:00.362Z,98772.84
2022-09-15T03:57:28.139Z,98773.09
2022-09-15T03:59:55.909Z,98774.75
2022-09-15T04:02:24.153Z,98771.72
2022-09-15T04:04:52.389Z,98764.53
2022-09-15T04:07:20.105Z,98772.41
2022-09-15T04:09:47.791Z,98772.28
2022-09-15T04:12:16.068Z,98774.75
2022-09-15T04:14:43.939Z,98778.47
2022-09-15T04:17:11.934Z,98767.28
2022-09-15T04:19:40.981Z,98770.59
2022-09-15T04:22:08.763Z,98768.66
2022-09-15T04:24:36.517Z,98776.75
2022-09-15T04:27:04.896Z,98774.34
2022-09-15T04:29:32.692Z,98775.47
2022-09-15T04:32:00.657Z,98770.53
2022-09-15T04:34:28.824Z,98776.91
2022-09-15T04:36:56.590Z,98777.62
2022-09-15T04:39:24.608Z,98776.81
2022-09-15T04:41:52.741Z,98773.72
2022-09-15T04:44:20.675Z,98778.72
2022-09-15T04:46:49.128Z,98781.19
2022-09-15T04:49:17.336Z,98778.56
2022-09-15T04:51:45.125Z,98780.22
2022-09-15T04:54:12.846Z,98767.88
2022-09-15T04:56:41.232Z,98770.69
2022-09-15T04:59:14.886Z,98773.16
2022-09-15T05:01:44.015Z,98774.00
2022-09-15T05:04:12.287Z,98773.22
2022-09-15T05:06:40.236Z,98778.94
2022-09-15T05:09:10.419Z,98778.72
2022-09-15T05:11:38.886Z,98787.84
2022-09-15T05:14:08.305Z,98780.91
2022-09-15T05:16:36.879Z,98773.91
2022-09-15T05:19:05.107Z,98783.78
2022-09-15T05:21:33.191Z,98776.75
2022-09-15T05:24:01.386Z,98772.03
2022-09-15T05:26:30.097Z,98778.31
2022-09-15T05:28:58.256Z,98771.56
2022-09-15T05:31:28.944Z,98772.84
2022-09-15T05:33:57.507Z,98774.19
2022-09-15T05:36:25.608Z,98775.00
2022-09-15T05:38:54.519Z,98767.88
2022-09-15T05:41:22.931Z,98775.16
2022-09-15T05:43:51.322Z,98774.41
2022-09-15T05:46:20.729Z,98768.63
2022-09-15T05:48:48.628Z,98777.41
2022-09-15T05:51:16.359Z,98780.81
2022-09-15T05:53:44.524Z,98783.06
2022-09-15T05:56:14.243Z,98782.78
2022-09-15T05:58:43.735Z,98782.78
2022-09-15T06:01:15.391Z,98782.44
2022-09-15T06:03:44.467Z,98795.97
2022-09-15T06:06:12.580Z,98788.41
2022-09-15T06:08:44.460Z,98781.63
2022-09-15T06:11:15.895Z,98788.19
2022-09-15T06:13:44.438Z,98793.78
2022-09-15T06:16:15.475Z,98788.72
2022-09-15T06:18:43.658Z,98793.16
2022-09-15T06:21:14.542Z,98793.66
2022-09-15T06:23:45.031Z,98798.22
2022-09-15T06:26:20.489Z,98788.28
2022-09-15T06:29:00.740Z,98803.56
2022-09-15T06:31:31.937Z,98793.06
2022-09-15T06:34:00.854Z,98793.78
2022-09-15T06:36:30.709Z,98791.53
2022-09-15T06:38:59.226Z,98789.81
2022-09-15T06:41:33.017Z,98785.97
2022-09-15T06:44:17.455Z,98799.50
2022-09-15T06:46:45.267Z,98801.59
2022-09-15T06:49:15.398Z,98793.72
2022-09-15T06:51:43.621Z,98800.16
2022-09-15T06:54:12.210Z,98805.06
2022-09-15T06:56:39.952Z,98795.81
2022-09-15T06:59:10.339Z,98803.25
2022-09-15T07:01:38.224Z,98804.66
2022-09-15T07:04:09.202Z,98806.41
2022-09-15T07:06:39.392Z,98801.16
2022-09-15T07:09:08.044Z,98807.69
2022-09-15T07:11:36.013Z,98805.59
2022-09-15T07:14:04.809Z,98806.69
2022-09-15T07:16:33.006Z,98814.56
2022-09-15T07:19:03.540Z,98803.44
2022-09-15T07:21:31.745Z,98815.31
2022-09-15T07:24:02.690Z,98815.38
2022-09-15T07:26:34.175Z,98812.69
2022-09-15T07:29:05.882Z,98816.19
2022-09-15T07:31:35.676Z,98813.75
2022-09-15T07:34:04.020Z,98812.59
2022-09-15T07:36:32.292Z,98809.66
2022-09-15T07:39:00.509Z,98814.78
2022-09-15T07:41:30.438Z,98817.88
2022-09-15T07:44:00.451Z,98819.75
2022-09-15T07:46:32.171Z,98812.59
2022-09-15T07:49:03.308Z,98811.16
2022-09-15T07:51:31.762Z,98804.81
2022-09-15T07:53:59.594Z,98816.34
2022-09-15T07:56:27.424Z,98806.03
2022-09-15T07:58:55.529Z,98811.69
2022-09-15T08:01:23.529Z,98813.03
2022-09-15T08:03:52.984Z,98806.53
2022-09-15T08:06:23.820Z,98809.50
2022-09-15T08:09:00.064Z,98803.94
2022-09-15T08:11:29.337Z,98808.03
2022-09-15T08:14:00.728Z,98810.41
2022-09-15T08:16:28.743Z,98810.81
2022-09-15T08:18:56.492Z,98821.72
2022-09-15T08:21:24.674Z,98813.09
2022-09-15T08:23:58.273Z,98811.44
2022-09-15T08:26:28.384Z,98821.44
2022-09-15T08:28:58.838Z,98816.03
2022-09-15T08:31:27.079Z,98805.25
2022-09-15T08:33:56.225Z,98823.03
2022-09-15T08:36:28.212Z,98827.53
2022-09-15T08:38:56.920Z,98821.41
2022-09-15T08:41:38.321Z,98819.25
2022-09-15T08:44:24.946Z,98830.16
2022-09-15T08:47:14.372Z,98818.44
2022-09-15T08:50:05.979Z,98817.34
2022-09-15T08:52:49.685Z,98823.56
2022-09-15T08:55:46.125Z,98821.69
2022-09-15T08:58:18.021Z,98820.37
2022-09-15T09:00:48.920Z,98824.03
2022-09-15T09:03:34.235Z,98821.25
2022-09-15T09:06:17.254Z,98820.44
2022-09-15T09:08:50.973Z,98817.75
2022-09-15T09:11:34.419Z,98831.78
2022-09-15T09:14:35.731Z,98833.72
2022-09-15T09:17:24.759Z,98830.31
2022-09-15T09:20:20.041Z,98832.50
2022-09-15T09:22:51.629Z,98837.06
2022-09-15T09:25:27.515Z,98837.25
2022-09-15T09:27:58.891Z,98847.00
2022-09-15T09:30:29.990Z,98839.31
2022-09-15T09:33:20.448Z,98842.22
2022-09-15T09:35:54.449Z,98840.06
2022-09-15T09:38:29.000Z,98848.44
2022-09-15T09:41:02.354Z,98839.16
2022-09-15T09:43:32.068Z,98855.31
2022-09-15T09:46:00.139Z,98849.38
2022-09-15T09:48:29.409Z,98853.47
2022-09-15T09:53:42.725Z,98858.37
2022-09-15T09:56:18.364Z,98861.62
2022-09-15T09:58:46.383Z,98864.19
2022-09-15T10:01:17.209Z,98868.72
2022-09-15T10:03:46.304Z,98864.97
2022-09-15T10:06:19.342Z,98866.31
2022-09-15T10:09:04.465Z,98868.50
2022-09-15T10:11:48.115Z,98872.94
2022-09-15T10:14:22.724Z,98875.44
2022-09-15T10:17:02.120Z,98867.19
2022-09-15T10:19:43.714Z,98878.91
2022-09-15T10:22:31.006Z,98878.91
2022-09-15T10:25:01.698Z,98863.13
2022-09-15T10:27:32.572Z,98876.72
2022-09-15T10:30:18.275Z,98881.75
2022-09-15T10:32:46.167Z,98889.34
2022-09-15T10:35:19.956Z,98889.38
2022-09-15T10:38:05.319Z,98894.38
2022-09-15T10:41:01.168Z,98890.72
2022-09-15T10:43:31.758Z,98887.47
2022-09-15T10:46:19.702Z,98896.94
2022-09-15T10:49:22.518Z,98903.09
2022-09-15T10:52:25.480Z,98898.19
2022-09-15T10:55:51.553Z,98893.69
2022-09-15T10:58:49.622Z,98893.16
2022-09-15T11:01:29.795Z,98896.25
2022-09-15T11:04:11.742Z,98904.06
2022-09-15T11:06:39.412Z,98903.97
2022-09-15T11:09:29.526Z,98906.69
2022-09-15T11:12:35.625Z,98902.69
2022-09-15T11:15:31.591Z,98903.37
2022-09-15T11:18:25.555Z,98908.28
2022-09-15T11:21:16.714Z,98910.63
2022-09-15T11:23:54.056Z,98909.34
2022-09-15T11:26:34.819Z,98915.72
2022-09-15T11:29:23.763Z,98914.06
2022-09-15T11:32:15.946Z,98921.28
2022-09-15T11:34:51.366Z,98913.72
2022-09-15T11:37:24.508Z,98920.69
2022-09-15T11:40:05.981Z,98917.75
2022-09-15T11:42:40.654Z,98929.25
2022-09-15T11:45:18.473Z,98925.81
2022-09-15T11:47:56.707Z,98921.97
2022-09-15T11:50:41.859Z,98929.84
2022-09-15T11:53:20.938Z,98924.25
2022-09-15T11:56:00.629Z,98928.28
2022-09-15T11:58:43.342Z,98924.75
2022-09-15T12:01:10.973Z,98926.87
2022-09-15T12:03:54.287Z,98931.50
2022-09-15T12:06:35.926Z,98940.53
2022-09-15T12:09:06.755Z,98938.81
2022-09-15T12:11:44.217Z,98935.19
2022-09-15T12:14:36.040Z,98934.81
2022-09-15T12:17:06.880Z,98937.38
2022-09-15T12:19:43.772Z,98940.97
2022-09-15T12:22:20.678Z,98942.31
2022-09-15T12:25:01.690Z,98932.13
2022-09-15T12:27:31.581Z,98941.22
2022-09-15T12:30:00.901Z,98936.84
2022-09-15T12:32:35.277Z,98937.22
2022-09-15T12:35:33.824Z,98939.13
2022-09-15T12:38:01.889Z,98936.78
2022-09-15T12:40:40.855Z,98941.81
2022-09-15T12:43:11.843Z,98941.81
2022-09-15T12:45:46.296Z,98934.37
2022-09-15T12:48:25.346Z,98932.44
2022-09-15T12:50:56.386Z,98938.97
2022-09-15T12:53:28.398Z,98928.81
2022-09-15T12:56:03.778Z,98923.94
2022-09-15T12:58:38.353Z,98938.34
2022-09-15T13:01:44.894Z,98943.84
2022-09-15T13:04:27.002Z,98937.22
2022-09-15T13:07:16.748Z,98936.56
2022-09-15T13:09:45.838Z,98942.56
2022-09-15T13:12:18.110Z,98949.19
2022-09-15T13:14:50.340Z,98941.50
2022-09-15T13:17:22.961Z,98936.81
2022-09-15T13:19:56.875Z,98945.81
2022-09-15T13:22:47.816Z,98946.69
2022-09-15T13:25:19.745Z,98952.84
2022-09-15T13:27:55.116Z,98950.19
2022-09-15T13:31:00.111Z,98951.94
2022-09-15T13:40:35.411Z,98955.47
2022-09-15T13:43:24.390Z,98961.53
2022-09-15T13:46:12.908Z,98960.19
2022-09-15T13:49:07.484Z,98962.34
2022-09-15T13:51:38.743Z,98967.66
2022-09-15T13:54:15.695Z,98972.63
2022-09-15T13:56:45.717Z,98973.59
2022-09-15T13:59:30.870Z,98977.28
2022-09-15T14:02:00.179Z,98978.94
2022-09-15T14:04:31.474Z,98976.84
2022-09-15T14:07:02.062Z,98987.37
2022-09-15T14:09:47.780Z,98986.44
2022-09-15T14:12:18.410Z,98990.81
2022-09-15T14:14:54.973Z,98982.03
2022-09-15T14:17:27.314Z,98990.69
2022-09-15T14:19:58.080Z,98992.16
2022-09-15T14:22:33.024Z,98993.63
2022-09-15T14:25:07.760Z,98996.09
2022-09-15T14:27:36.924Z,98995.66
2022-09-15T14:30:08.796Z,99000.63
2022-09-15T14:32:40.273Z,99004.91
2022-09-15T14:35:17.303Z,98998.03
2022-09-15T14:37:56.937Z,99001.44
2022-09-15T14:40:31.797Z,99003.16
2022-09-15T14:42:59.843Z,98993.47
2022-09-15T14:48:28.509Z,99006.62
2022-09-15T14:51:17.263Z,99010.69
2022-09-15T14:53:45.814Z,99009.19
2022-09-15T14:56:23.303Z,99001.59
2022-09-15T14:59:04.799Z,99016.03
2022-09-15T15:01:38.034Z,99011.38
2022-09-15T15:04:33.508Z,99012.19
2022-09-15T15:07:26.007Z,99014.16
2022-09-15T15:09:58.723Z,99006.78
2022-09-15T15:12:32.574Z,99013.31
2022-09-15T15:15:01.477Z,99018.87
2022-09-15T15:17:38.769Z,99006.69
2022-09-15T15:20:06.625Z,99011.28
2022-09-15T15:22:35.650Z,99004.53
2022-09-15T15:25:20.810Z,99009.25
2022-09-15T15:27:54.433Z,99002.03
2022-09-15T15:30:31.127Z,99002.47
2022-09-15T15:33:02.227Z,99003.00
2022-09-15T15:35:31.227Z,99009.53
2022-09-15T15:38:14.523Z,99003.66
2022-09-15T15:40:43.618Z,99007.06
2022-09-15T15:43:22.829Z,99008.72
2022-09-15T15:45:58.570Z,99009.84
2022-09-15T15:48:28.529Z,99016.38
2022-09-15T15:50:56.542Z,99018.75
2022-09-15T15:53:24.976Z,99014.78
2022-09-15T15:55:55.369Z,99010.78
2022-09-15T15:58:23.487Z,99008.47
2022-09-15T16:00:56.892Z,99006.44
2022-09-15T16:03:25.892Z,99017.09
2022-09-15T16:05:58.055Z,99019.34
2022-09-15T16:08:40.174Z,99010.37
2022-09-15T16:11:14.086Z,99019.38
2022-09-15T16:13:42.754Z,99014.72
2022-09-15T16:16:22.074Z,99013.03
2022-09-15T16:18:53.454Z,99016.09
2022-09-15T16:21:37.130Z,99017.69
2022-09-15T16:24:06.502Z,99026.09
2022-09-15T16:26:38.119Z,99012.72
2022-09-15T16:29:06.656Z,99018.03
2022-09-15T16:31:35.261Z,99005.66
2022-09-15T16:34:03.220Z,99008.19
2022-09-15T16:36:35.043Z,99009.16
2022-09-15T16:39:03.155Z,99005.34
2022-09-15T16:41:33.852Z,99008.88
2022-09-15T16:44:04.720Z,99009.59
2022-09-15T16:46:32.990Z,99016.06
2022-09-15T16:49:00.822Z,99020.94
2022-09-15T16:51:31.596Z,99017.50
2022-09-15T16:53:59.945Z,99017.28
2022-09-15T16:56:30.936Z,99023.94
2022-09-15T16:59:00.561Z,99016.91
2022-09-15T17:01:29.260Z,99011.41
2022-09-15T17:03:57.161Z,99027.84
2022-09-15T17:06:24.958Z,99017.37
2022-09-15T17:08:53.159Z,99021.81
2022-09-15T17:11:24.088Z,99014.09
2022-09-15T17:13:52.127Z,99009.81
2022-09-15T17:16:20.516Z,99011.88
2022-09-15T17:18:48.736Z,99006.91
2022-09-15T17:21:17.691Z,99024.72
2022-09-15T17:23:50.280Z,99021.97
2022-09-15T17:26:28.791Z,99028.75
2022-09-15T17:28:59.554Z,99020.72
2022-09-15T17:31:28.251Z,99026.66
2022-09-15T17:33:56.127Z,99017.41
2022-09-15T17:36:24.377Z,99021.81
2022-09-15T17:38:52.267Z,99022.47
2022-09-15T17:41:22.617Z,99019.72
2022-09-15T17:43:51.218Z,99020.97
2022-09-15T17:46:19.187Z,99008.81
2022-09-15T17:48:46.999Z,99023.72
2022-09-15T17:51:19.777Z,99025.47
2022-09-15T17:53:48.102Z,99021.75
2022-09-15T17:56:16.587Z,99028.34
2022-09-15T17:58:44.385Z,99023.09
2022-09-15T18:01:14.842Z,99027.22
2022-09-15T18:03:45.149Z,99028.44
2022-09-15T18:06:13.155Z,99024.97
2022-09-15T18:08:41.435Z,99026.44
2022-09-15T18:11:13.991Z,99016.25
2022-09-15T18:13:44.352Z,99021.38
2022-09-15T18:16:14.399Z,99016.66
2022-09-15T18:18:42.311Z,99015.94
2022-09-15T18:21:21.672Z,99010.53
2022-09-15T18:23:49.991Z,99017.19
2022-09-15T18:26:21.605Z,99008.19
2022-09-15T18:28:54.814Z,99023.16
2022-09-15T18:31:23.029Z,99012.88
2022-09-15T18:33:50.856Z,99011.78
2022-09-15T18:36:19.428Z,99024.06
2022-09-15T18:38:47.271Z,99019.06
2022-09-15T18:41:15.005Z,99028.28
2022-09-15T18:43:44.096Z,99031.84
2022-09-15T18:46:14.181Z,99030.69
2022-09-15T18:48:42.144Z,99027.22
2022-09-15T18:51:16.304Z,99027.22
2022-09-15T18:53:52.060Z,99024.06
2022-09-15T18:56:22.295Z,99017.53
2022-09-15T18:58:54.081Z,99008.06
2022-09-15T19:01:22.967Z,99016.16
2022-09-15T19:03:50.952Z,99014.25
2022-09-15T19:06:18.883Z,99015.09
2022-09-15T19:08:49.501Z,99010.37
2022-09-15T19:11:28.844Z,99018.84
2022-09-15T19:13:58.049Z,99014.12
2022-09-15T19:16:46.774Z,99003.25
2022-09-15T19:19:17.247Z,98998.00
2022-09-15T19:21:45.112Z,99005.41
2022-09-15T19:24:13.087Z,99007.44
2022-09-15T19:26:42.563Z,99008.75
2022-09-15T19:29:10.425Z,99010.94
2022-09-15T19:31:41.810Z,99005.88
2022-09-15T19:34:10.761Z,99009.03
2022-09-15T19:36:38.511Z,99004.06
2022-09-15T19:39:06.351Z,99016.44
2022-09-15T19:41:34.625Z,99009.34
2022-09-15T19:44:02.749Z,99012.91
2022-09-15T19:46:31.407Z,99015.66
2022-09-15T19:48:59.553Z,99024.94
2022-09-15T19:51:27.547Z,99022.41
2022-09-15T19:53:56.283Z,99018.03
2022-09-15T19:56:28.618Z,99017.09
2022-09-15T19:58:58.761Z,99012.59
2022-09-15T20:01:29.637Z,99015.09
2022-09-15T20:03:58.040Z,99010.09
2022-09-15T20:06:30.203Z,99007.25
2022-09-15T20:09:00.578Z,99003.19
2022-09-15T20:11:30.375Z,99005.00
2022-09-15T20:13:58.878Z,99008.66
2022-09-15T20:16:28.044Z,99012.22
2022-09-15T20:18:56.273Z,99007.81
2022-09-15T20:24:18.047Z,99004.75
2022-09-15T20:26:45.812Z,99009.59
2022-09-15T20:29:14.671Z,99013.41
2022-09-15T20:31:43.044Z,99008.28
2022-09-15T20:34:11.423Z,99011.47
2022-09-15T20:36:40.392Z,99011.00
2022-09-15T20:39:13.485Z,99017.66
2022-09-15T20:41:45.282Z,99016.94
2022-09-15T20:44:14.270Z,99019.47
2022-09-15T20:46:42.719Z,99013.59
2022-09-15T20:49:11.525Z,98998.59
2022-09-15T20:51:39.851Z,99014.31
2022-09-15T20:54:07.766Z,99010.84
2022-09-15T20:56:36.310Z,99021.41
2022-09-15T20:59:06.322Z,99018.53
2022-09-15T21:01:38.678Z,99018.53
2022-09-15T21:04:08.777Z,99023.94
2022-09-15T21:06:37.225Z,99019.91
2022-09-15T21:09:06.386Z,99014.88
2022-09-15T21:11:34.799Z,99019.81
2022-09-15T21:14:02.855Z,99025.91
2022-09-15T21:16:31.034Z,99020.09
2022-09-15T21:18:59.715Z,99018.50
2022-09-15T21:21:30.540Z,99023.66
2022-09-15T21:24:02.128Z,99017.31
2022-09-15T21:26:35.804Z,99016.22
2022-09-15T21:29:04.552Z,99017.66
2022-09-15T21:31:33.559Z,99002.87
2022-09-15T21:34:01.375Z,98999.59
2022-09-15T21:36:31.040Z,99009.09
2022-09-15T21:39:00.148Z,99008.63
2022-09-15T21:41:32.519Z,98999.72
2022-09-15T21:44:01.381Z,98993.69
2022-09-15T21:46:31.043Z,98988.88
2022-09-15T21:49:00.409Z,98993.13
2022-09-15T21:51:30.687Z,98999.69
2022-09-15T21:53:59.914Z,99002.03
2022-09-15T21:56:30.033Z,98997.34
2022-09-15T21:58:58.053Z,99004.88
2022-09-15T22:01:29.465Z,99007.28
2022-09-15T22:03:59.894Z,99011.88
2022-09-15T22:06:34.093Z,99011.63
2022-09-15T22:09:06.004Z,99012.50
2022-09-15T22:11:34.583Z,99018.75
2022-09-15T22:14:04.675Z,99014.75
2022-09-15T22:16:34.526Z,99009.09
2022-09-15T22:19:03.063Z,99014.22
2022-09-15T22:21:37.207Z,99012.69
2022-09-15T22:24:07.454Z,99006.62
2022-09-15T22:26:38.365Z,99005.34
2022-09-15T22:29:06.911Z,99005.22
2022-09-15T22:31:35.259Z,99003.63
2022-09-15T22:34:03.473Z,98996.22
2022-09-15T22:36:32.294Z,99000.84
2022-09-15T22:39:05.683Z,98999.25
2022-09-15T22:41:36.406Z,98996.16
2022-09-15T22:44:05.430Z,98999.03
2022-09-15T22:46:33.327Z,98998.59
2022-09-15T22:49:01.724Z,98990.19
2022-09-15T22:51:38.768Z,98990.75
2022-09-15T22:54:07.055Z,98989.72
2022-09-15T22:56:34.946Z,98985.69
2022-09-15T22:59:03.329Z,98990.56
2022-09-15T23:01:31.535Z,98983.06
2022-09-15T23:04:01.802Z,98989.59
2022-09-15T23:06:32.581Z,98990.91
2022-09-15T23:09:04.406Z,98984.19
2022-09-15T23:11:33.579Z,98987.25
2022-09-15T23:14:02.282Z,98991.47
2022-09-15T23:16:31.501Z,98988.00
2022-09-15T23:18:59.667Z,98980.41
2022-09-15T23:21:28.615Z,98985.66
2022-09-15T23:23:56.770Z,98986.41
2022-09-15T23:26:25.635Z,98983.66
2022-09-15T23:28:54.261Z,98984.38
2022-09-15T23:31:22.538Z,98985.56
2022-09-15T23:33:50.455Z,98990.91
2022-09-15T23:36:19.834Z,98978.09
2022-09-15T23:38:48.497Z,98976.41
2022-09-15T23:41:17.731Z,98976.88
2022-09-15T23:43:46.711Z,98982.31
2022-09-15T23:46:15.140Z,98974.97
2022-09-15T23:48:42.980Z,98962.63
2022-09-15T23:51:11.336Z,98977.31
2022-09-15T23:53:39.457Z,98963.13
2022-09-15T23:56:07.963Z,98965.25
2022-09-15T23:58:38.362Z,98965.63
